• Join FlightAware (Why Join?)
  • Login
  • US Flag 
07:29AM EDT


 

Airport Tracker/Info


-or-


 

Live Flight TrackerFlight Track Log ✈ FLG3429 ✈ 15-Jul-2013 ✈ KJFK - KJAX

Flight Track Log - Related Links

Times and Time Zones

All times are in EDT time to prevent confusion due to time zone crossing. See the FLG3429 flight status page for this flight to view local times or setup timezone preferences in your user account.

Time Position Orientation Groundspeed Altitude Reporting Facility
EDT Latitude Longitude Course Direction KTS MPH feet Rate Location/Type
07:59PM 40.6500 -73.8500 217° Southwest 196 226 1,700  Level New York TRACON
08:00PM 40.6000 -73.9167 225° Southwest 238 274 3,700 2,160 Climbing New York TRACON
08:01PM 40.4221 -74.1052 233° Southwest  Level FlightAware Approximate
08:01PM 40.5333 -73.9667 210° Southwest 286 329 6,100  Level New York TRACON
08:02PM 40.3504 -74.2272 232° Southwest  Level FlightAware Approximate
08:02PM 40.4667 -74.0167 210° Southwest 290 334 8,800  Level New York TRACON
08:03PM 40.2777 -74.3482 232° Southwest  Level FlightAware Approximate
08:03PM 40.4000 -74.1000 224° Southwest 306 352 10,900  Level New York TRACON
08:04PM 40.2046 -74.4620 217° Southwest  Level FlightAware Approximate
08:05PM 40.3433 -74.2567 245° Southwest 339 390 13,000  Level New York Center
08:06PM 40.3189 -74.3833 256° West 354 407 14,900 1,800 Climbing New York Center
08:07PM 40.2936 -74.5181 256° West 378 435 16,700 1,620 Climbing New York Center
08:08PM 40.2686 -74.6500 256° West 384 442 18,200 1,440 Climbing New York Center
08:09PM 40.2431 -74.7900 257° West 394 453 19,700 1,440 Climbing New York Center
08:10PM 40.2172 -74.9353 257° West 399 459 21,100 1,560 Climbing New York Center
08:11PM 40.1767 -75.0767 249° West 405 466 22,900 1,680 Climbing New York Center
08:12PM 40.1547 -75.2194 259° West 410 472 24,500 1,260 Climbing New York Center
08:13PM 40.1350 -75.3539 259° West 418 481 25,500 960 Climbing New York Center
08:14PM 40.0633 -75.4767 233° Southwest 412 474 26,500 900 Climbing New York Center
08:15PM 39.9797 -75.5903 226° Southwest 418 481 27,400 780 Climbing New York Center
08:16PM 39.8447 -75.7942 229° Southwest 447 514 28,700 780 Climbing Washington Center
08:17PM 39.7631 -75.9236 231° Southwest 465 535 29,600 780 Climbing Washington Center
08:18PM 39.6772 -76.0553 230° Southwest 476 548 30,400 780 Climbing Washington Center
08:19PM 39.5956 -76.1867 231° Southwest 476 548 31,200 720 Climbing Washington Center
08:20PM 39.5072 -76.3206 229° Southwest 482 555 31,900 900 Climbing Washington Center
08:21PM 39.4208 -76.4567 231° Southwest 482 555 33,000 900 Climbing Washington Center
08:22PM 39.3322 -76.5897 229° Southwest 487 560 33,800 480 Climbing Washington Center
08:23PM 39.2478 -76.7253 231° Southwest 487 560 34,000 60 Climbing Washington Center
08:24PM 39.1589 -76.8631 230° Southwest 493 567 34,000  Level Washington Center
08:25PM 39.0697 -77.0006 230° Southwest 499 574 34,000  Level Washington Center
08:26PM 38.9683 -77.1214 223° Southwest 499 574 34,000  Level Washington Center
08:27PM 38.8647 -77.2339 220° Southwest 494 568 34,000  Level Washington Center
08:28PM 38.7589 -77.3486 220° Southwest 494 568 34,000  Level Washington Center
08:29PM 38.6550 -77.4606 220° Southwest 494 568 34,000  Level Washington Center
08:30PM 38.5531 -77.5722 221° Southwest 489 563 34,000  Level Washington Center
08:31PM 38.4511 -77.6861 221° Southwest 489 563 34,000  Level Washington Center
08:32PM 38.3492 -77.7944 220° Southwest 489 563 34,000  Level Washington Center
08:33PM 38.2447 -77.9050 220° Southwest 489 563 34,000  Level Washington Center
08:34PM 38.1447 -78.0156 221° Southwest 489 563 34,000  Level Washington Center
08:35PM 38.0422 -78.1231 220° Southwest 489 563 34,000  Level Washington Center
08:36PM 37.9400 -78.2275 219° Southwest 484 557 34,000  Level Washington Center
08:37PM 37.8314 -78.3261 216° Southwest 484 557 34,000  Level Washington Center
08:38PM 37.7247 -78.4300 218° Southwest 489 563 34,000  Level Washington Center
08:39PM 37.6053 -78.5408 216° Southwest 494 568 34,000  Level Washington Center
08:40PM 37.4983 -78.6414 217° Southwest 494 568 34,000  Level Washington Center
08:41PM 37.3894 -78.7442 217° Southwest 494 568 34,000  Level Washington Center
08:42PM 37.2803 -78.8442 216° Southwest 494 568 34,000  Level Washington Center
08:43PM 37.1711 -78.9464 217° Southwest 494 568 34,000  Level Washington Center
08:44PM 37.0725 -79.0383 217° Southwest 494 568 34,000  Level Washington Center
08:45PM 36.9653 -79.1350 216° Southwest 494 568 34,000  Level Washington Center
08:48PM 36.6633 -79.4117 216° Southwest 481 554 34,000  Level Atlanta Center
08:49PM 36.5547 -79.5136 217° Southwest 487 560 34,000  Level Atlanta Center
08:50PM 36.4356 -79.6183 215° Southwest 487 560 34,000  Level Atlanta Center
08:51PM 36.3283 -79.7169 217° Southwest 487 560 34,000  Level Atlanta Center
08:52PM 36.2192 -79.8181 217° Southwest 487 560 34,000  Level Atlanta Center
08:53PM 36.1078 -79.9139 215° Southwest 494 568 34,000  Level Atlanta Center
08:54PM 36.0083 -79.9933 213° Southwest 488 562 34,000  Level Atlanta Center
08:55PM 35.8850 -80.0533 202° Southwest 475 547 34,000  Level Atlanta Center
08:56PM 35.7597 -80.1106 200° South 475 547 34,000  Level Atlanta Center
08:57PM 35.6317 -80.1525 195° South 475 547 34,000  Level Atlanta Center
08:58PM 35.5036 -80.1917 194° South 475 547 34,000  Level Atlanta Center
08:59PM 35.3775 -80.2308 194° South 475 547 34,000  Level Atlanta Center
09:00PM 35.2453 -80.2725 194° South 475 547 34,000  Level Atlanta Center
09:02PM 35.0494 -80.3342 194° South 485 558 34,000  Level Jacksonville Center
09:03PM 34.9086 -80.3739 193° South 480 552 34,000  Level Jacksonville Center
09:04PM 34.7989 -80.4150 197° South 475 547 34,000  Level Jacksonville Center
09:05PM 34.6681 -80.4439 190° South 470 541 34,000  Level Jacksonville Center
09:06PM 34.5394 -80.4828 194° South 470 541 34,000  Level Jacksonville Center
09:07PM 34.4086 -80.5192 193° South 470 541 34,000  Level Jacksonville Center
09:08PM 34.2822 -80.5556 193° South 470 541 34,000  Level Jacksonville Center
09:09PM 34.1492 -80.5917 193° South 476 548 34,000  Level Jacksonville Center
09:10PM 34.0228 -80.6275 193° South 476 548 34,000  Level Jacksonville Center
09:11PM 33.8897 -80.6633 193° South 476 548 34,000  Level Jacksonville Center
09:12PM 33.7631 -80.6992 193° South 481 554 34,000  Level Jacksonville Center
09:13PM 33.6303 -80.7347 193° South 486 559 34,000  Level Jacksonville Center
09:14PM 33.5014 -80.7703 193° South 486 559 34,000 -180 Level Jacksonville Center
09:15PM 33.3725 -80.8058 193° South 486 559 33,700 -900 Descending Jacksonville Center
09:16PM 33.2417 -80.8411 193° South 486 559 32,200 -1,260 Descending Jacksonville Center
09:18PM 32.9756 -80.9117 193° South 475 547 30,000 -780 Descending Jacksonville Center
09:19PM 32.8467 -80.9442 192° South 475 547 30,000  Level Jacksonville Center
09:20PM 32.7136 -80.9817 193° South 475 547 30,000  Level Jacksonville Center
09:21PM 32.5786 -81.0214 194° South 492 566 30,000  Level Jacksonville Center
09:22PM 32.4433 -81.0561 192° South 492 566 30,000  Level Jacksonville Center
09:23PM 32.3144 -81.0956 195° South 492 566 30,000 -840 Level Jacksonville Center
09:24PM 32.1814 -81.1325 193° South 484 557 28,400 -1,800 Descending Jacksonville Center
09:25PM 32.0525 -81.1669 193° South 481 554 26,500 -2,040 Descending Jacksonville Center
09:26PM 31.9319 -81.2033 194° South 457 526 24,400 -2,040 Descending Jacksonville Center
09:27PM 31.8194 -81.2350 193° South 432 497 22,500 -1,800 Descending Jacksonville Center
09:28PM 31.7133 -81.2636 193° South 432 497 20,800 -1,920 Descending Jacksonville Center
09:29PM 31.5886 -81.2975 193° South 421 484 18,700 -1,860 Descending Jacksonville Center
09:30PM 31.4825 -81.3286 194° South 401 461 17,100 -1,740 Descending Jacksonville Center
09:31PM 31.3889 -81.3519 192° South 395 455 15,300 -1,980 Descending Jacksonville Center
09:32PM 31.2722 -81.3881 195° South 393 452 13,200 -1,980 Descending Jacksonville Center
09:33PM 31.1703 -81.4139 192° South 388 447 11,400 -1,620 Descending Jacksonville Center
09:34PM 31.0706 -81.4422 194° South 383 441 10,000 -720 Descending Jacksonville Center
09:35PM 30.9728 -81.4703 194° South 376 433 10,000  Level Jacksonville Center
09:36PM 30.8814 -81.5272 208° Southwest 371 427 10,000 -240 Level Jacksonville Center
09:36PM 30.8294 -81.5572 206° Southwest 293 337 9,600 -1,320 Descending Jacksonville Center
09:37PM 30.7714 -81.5967 210° Southwest 300 345 8,100 -1,320 Descending Jacksonville Center
09:38PM 30.7361 -81.6214 211° Southwest 320 368 7,900 -1,200 Descending Jacksonville Center
09:39PM 30.6678 -81.6681 210° Southwest 300 345 6,300 -1,620 Descending Jacksonville Center
09:39PM 30.6181 -81.7000 209° Southwest 283 326 5,100 -1,320 Descending Jacksonville Center
09:40PM 30.5706 -81.7756 234° Southwest 261 300 4,100 -1,440 Descending Jacksonville Center
09:41PM 30.5292 -81.8097 215° Southwest 174 200 2,300 -1,800 Descending Jacksonville Center